sensor_id;sensor_type;location;lat;lon;timestamp;pressure;altitude;pressure_sealevel;temperature;humidity
75166;BME280;63747;48.042;10.088;2023-03-16T00:02:10;95483.50;;;-0.38;63.29
75166;BME280;63747;48.042;10.088;2023-03-16T00:05:12;95480.78;;;-0.36;63.25
75166;BME280;63747;48.042;10.088;2023-03-16T00:08:14;95475.63;;;-0.50;63.63
75166;BME280;63747;48.042;10.088;2023-03-16T00:11:15;95475.53;;;-0.49;63.65
75166;BME280;63747;48.042;10.088;2023-03-16T00:14:15;95469.31;;;-0.46;63.26
75166;BME280;63747;48.042;10.088;2023-03-16T00:17:18;95464.81;;;-0.44;63.27
75166;BME280;63747;48.042;10.088;2023-03-16T00:20:19;95466.66;;;-0.59;63.29
75166;BME280;63747;48.042;10.088;2023-03-16T00:23:21;95473.97;;;-0.78;63.69
75166;BME280;63747;48.042;10.088;2023-03-16T00:26:28;95472.00;;;-0.75;64.02
75166;BME280;63747;48.042;10.088;2023-03-16T00:29:28;95470.59;;;-0.66;63.56
75166;BME280;63747;48.042;10.088;2023-03-16T00:32:35;95466.72;;;-0.73;63.45
75166;BME280;63747;48.042;10.088;2023-03-16T00:35:36;95467.28;;;-0.82;63.34
75166;BME280;63747;48.042;10.088;2023-03-16T00:38:39;95466.75;;;-0.88;63.51
75166;BME280;63747;48.042;10.088;2023-03-16T00:41:44;95469.44;;;-0.89;63.39
75166;BME280;63747;48.042;10.088;2023-03-16T00:44:45;95471.94;;;-0.88;63.37
75166;BME280;63747;48.042;10.088;2023-03-16T00:47:46;95460.47;;;-0.98;63.26
75166;BME280;63747;48.042;10.088;2023-03-16T00:50:46;95464.28;;;-1.03;63.38
75166;BME280;63747;48.042;10.088;2023-03-16T00:53:47;95467.66;;;-1.16;63.59
75166;BME280;63747;48.042;10.088;2023-03-16T00:56:48;95462.81;;;-1.22;63.93
75166;BME280;63747;48.042;10.088;2023-03-16T00:59:49;95464.53;;;-1.21;63.85
75166;BME280;63747;48.042;10.088;2023-03-16T01:02:50;95459.84;;;-1.16;64.06
75166;BME280;63747;48.042;10.088;2023-03-16T01:05:50;95464.41;;;-1.19;63.74
75166;BME280;63747;48.042;10.088;2023-03-16T01:08:51;95455.22;;;-1.25;63.95
75166;BME280;63747;48.042;10.088;2023-03-16T01:11:52;95453.22;;;-1.34;64.17
75166;BME280;63747;48.042;10.088;2023-03-16T01:14:53;95448.88;;;-1.48;64.41
75166;BME280;63747;48.042;10.088;2023-03-16T01:17:54;95451.19;;;-1.57;64.72
75166;BME280;63747;48.042;10.088;2023-03-16T01:20:55;95455.06;;;-1.64;65.01
75166;BME280;63747;48.042;10.088;2023-03-16T01:23:55;95458.50;;;-1.64;65.01
75166;BME280;63747;48.042;10.088;2023-03-16T01:26:56;95455.38;;;-1.55;64.80
75166;BME280;63747;48.042;10.088;2023-03-16T01:29:57;95443.09;;;-1.53;64.58
75166;BME280;63747;48.042;10.088;2023-03-16T01:32:59;95441.91;;;-1.61;64.68
75166;BME280;63747;48.042;10.088;2023-03-16T01:36:08;95443.94;;;-1.66;64.92
75166;BME280;63747;48.042;10.088;2023-03-16T01:39:10;95440.69;;;-1.56;64.38
75166;BME280;63747;48.042;10.088;2023-03-16T01:42:11;95435.00;;;-1.62;64.31
75166;BME280;63747;48.042;10.088;2023-03-16T01:49:02;95441.44;;;-1.68;64.86
75166;BME280;63747;48.042;10.088;2023-03-16T01:52:07;95438.84;;;-1.68;64.86
75166;BME280;63747;48.042;10.088;2023-03-16T01:55:10;95432.06;;;-1.71;65.08
75166;BME280;63747;48.042;10.088;2023-03-16T01:58:13;95438.53;;;-1.63;65.00
75166;BME280;63747;48.042;10.088;2023-03-16T02:01:14;95418.13;;;-1.70;64.96
75166;BME280;63747;48.042;10.088;2023-03-16T02:04:27;95428.25;;;-1.65;65.13
75166;BME280;63747;48.042;10.088;2023-03-16T02:07:37;95420.56;;;-1.66;64.97
75166;BME280;63747;48.042;10.088;2023-03-16T02:10:39;95422.44;;;-1.69;65.27
75166;BME280;63747;48.042;10.088;2023-03-16T02:13:40;95429.91;;;-1.64;64.96
75166;BME280;63747;48.042;10.088;2023-03-16T02:16:42;95432.16;;;-1.72;65.11
75166;BME280;63747;48.042;10.088;2023-03-16T02:19:57;95436.25;;;-1.68;65.35
75166;BME280;63747;48.042;10.088;2023-03-16T02:22:59;95423.88;;;-1.64;65.04
75166;BME280;63747;48.042;10.088;2023-03-16T02:26:28;95423.06;;;-1.65;65.33
75166;BME280;63747;48.042;10.088;2023-03-16T02:33:01;95411.38;;;-1.72;65.14
75166;BME280;63747;48.042;10.088;2023-03-16T02:36:04;95408.97;;;-1.75;65.43
75166;BME280;63747;48.042;10.088;2023-03-16T02:39:04;95411.25;;;-1.71;65.58
75166;BME280;63747;48.042;10.088;2023-03-16T02:42:11;95410.63;;;-1.74;65.61
75166;BME280;63747;48.042;10.088;2023-03-16T02:45:12;95408.22;;;-1.77;65.61
75166;BME280;63747;48.042;10.088;2023-03-16T02:48:19;95419.72;;;-1.96;65.92
75166;BME280;63747;48.042;10.088;2023-03-16T02:51:21;95418.41;;;-2.03;66.28
75166;BME280;63747;48.042;10.088;2023-03-16T02:54:22;95415.63;;;-2.00;66.13
75166;BME280;63747;48.042;10.088;2023-03-16T02:57:23;95426.41;;;-1.91;65.69
75166;BME280;63747;48.042;10.088;2023-03-16T03:00:24;95425.56;;;-2.06;65.60
75166;BME280;63747;48.042;10.088;2023-03-16T03:03:25;95424.41;;;-2.16;66.02
75166;BME280;63747;48.042;10.088;2023-03-16T03:06:26;95418.13;;;-2.12;65.68
75166;BME280;63747;48.042;10.088;2023-03-16T03:09:27;95412.09;;;-2.13;65.61
75166;BME280;63747;48.042;10.088;2023-03-16T03:12:28;95414.31;;;-2.21;65.62
75166;BME280;63747;48.042;10.088;2023-03-16T03:15:28;95410.97;;;-2.23;65.60
75166;BME280;63747;48.042;10.088;2023-03-16T03:18:29;95408.19;;;-2.20;65.45
75166;BME280;63747;48.042;10.088;2023-03-16T03:21:30;95403.94;;;-2.21;65.27
75166;BME280;63747;48.042;10.088;2023-03-16T03:24:32;95396.31;;;-2.24;65.43
75166;BME280;63747;48.042;10.088;2023-03-16T03:27:33;95397.09;;;-2.22;65.41
75166;BME280;63747;48.042;10.088;2023-03-16T03:30:35;95401.97;;;-2.32;65.33
75166;BME280;63747;48.042;10.088;2023-03-16T03:33:36;95402.16;;;-2.35;65.58
75166;BME280;63747;48.042;10.088;2023-03-16T03:36:36;95404.66;;;-2.33;65.35
75166;BME280;63747;48.042;10.088;2023-03-16T03:39:37;95401.69;;;-2.41;65.61
75166;BME280;63747;48.042;10.088;2023-03-16T03:42:39;95401.22;;;-2.48;65.47
75166;BME280;63747;48.042;10.088;2023-03-16T03:45:40;95397.66;;;-2.61;65.74
75166;BME280;63747;48.042;10.088;2023-03-16T03:48:41;95399.41;;;-2.62;66.13
75166;BME280;63747;48.042;10.088;2023-03-16T03:51:42;95408.13;;;-2.63;66.00
75166;BME280;63747;48.042;10.088;2023-03-16T03:54:43;95420.34;;;-2.65;66.09
75166;BME280;63747;48.042;10.088;2023-03-16T03:57:44;95414.16;;;-2.62;66.07
75166;BME280;63747;48.042;10.088;2023-03-16T04:00:44;95414.06;;;-2.61;65.95
75166;BME280;63747;48.042;10.088;2023-03-16T04:03:45;95403.94;;;-2.65;66.11
75166;BME280;63747;48.042;10.088;2023-03-16T04:06:46;95405.78;;;-2.67;66.14
75166;BME280;63747;48.042;10.088;2023-03-16T04:09:47;95400.50;;;-2.66;66.13
75166;BME280;63747;48.042;10.088;2023-03-16T04:12:48;95385.59;;;-2.62;65.90
75166;BME280;63747;48.042;10.088;2023-03-16T04:15:55;95379.00;;;-2.68;65.78
75166;BME280;63747;48.042;10.088;2023-03-16T04:18:56;95383.53;;;-2.71;65.99
75166;BME280;63747;48.042;10.088;2023-03-16T04:21:57;95381.72;;;-2.85;66.29
75166;BME280;63747;48.042;10.088;2023-03-16T04:24:58;95381.38;;;-2.79;66.22
75166;BME280;63747;48.042;10.088;2023-03-16T04:27:58;95386.41;;;-2.76;65.96
75166;BME280;63747;48.042;10.088;2023-03-16T04:31:07;95384.31;;;-2.85;66.23
75166;BME280;63747;48.042;10.088;2023-03-16T04:34:09;95385.28;;;-3.02;66.42
75166;BME280;63747;48.042;10.088;2023-03-16T04:37:10;95380.75;;;-2.98;66.40
75166;BME280;63747;48.042;10.088;2023-03-16T04:40:11;95374.25;;;-3.06;66.65
75166;BME280;63747;48.042;10.088;2023-03-16T04:43:15;95366.91;;;-2.97;66.46
75166;BME280;63747;48.042;10.088;2023-03-16T04:46:16;95372.50;;;-3.05;66.19
75166;BME280;63747;48.042;10.088;2023-03-16T04:49:17;95382.94;;;-3.07;66.30
75166;BME280;63747;48.042;10.088;2023-03-16T04:52:18;95371.75;;;-3.07;66.21
75166;BME280;63747;48.042;10.088;2023-03-16T04:55:18;95371.94;;;-3.10;66.37
75166;BME280;63747;48.042;10.088;2023-03-16T04:58:19;95377.03;;;-3.09;66.09
75166;BME280;63747;48.042;10.088;2023-03-16T05:01:22;95372.22;;;-3.00;65.75
75166;BME280;63747;48.042;10.088;2023-03-16T05:04:22;95362.94;;;-3.05;65.92
75166;BME280;63747;48.042;10.088;2023-03-16T05:07:23;95360.78;;;-3.12;65.98
75166;BME280;63747;48.042;10.088;2023-03-16T05:10:24;95357.94;;;-3.08;65.90
75166;BME280;63747;48.042;10.088;2023-03-16T05:13:25;95351.50;;;-3.00;65.98
75166;BME280;63747;48.042;10.088;2023-03-16T05:16:25;95346.66;;;-3.07;66.38
75166;BME280;63747;48.042;10.088;2023-03-16T05:19:26;95359.72;;;-3.08;66.62
75166;BME280;63747;48.042;10.088;2023-03-16T05:22:27;95360.97;;;-3.15;67.18
75166;BME280;63747;48.042;10.088;2023-03-16T05:25:28;95354.03;;;-3.15;67.30
75166;BME280;63747;48.042;10.088;2023-03-16T05:28:28;95354.09;;;-3.00;67.19
75166;BME280;63747;48.042;10.088;2023-03-16T05:31:30;95354.66;;;-2.95;67.24
75166;BME280;63747;48.042;10.088;2023-03-16T05:34:35;95345.50;;;-2.87;67.27
75166;BME280;63747;48.042;10.088;2023-03-16T05:37:35;95347.19;;;-2.86;67.13
75166;BME280;63747;48.042;10.088;2023-03-16T05:40:37;95356.97;;;-2.91;67.47
75166;BME280;63747;48.042;10.088;2023-03-16T05:43:37;95357.16;;;-2.94;67.35
75166;BME280;63747;48.042;10.088;2023-03-16T05:46:38;95359.53;;;-3.05;67.90
75166;BME280;63747;48.042;10.088;2023-03-16T05:49:39;95353.94;;;-2.97;68.12
75166;BME280;63747;48.042;10.088;2023-03-16T05:52:40;95365.19;;;-2.98;68.00
75166;BME280;63747;48.042;10.088;2023-03-16T05:55:40;95360.28;;;-3.03;68.24
75166;BME280;63747;48.042;10.088;2023-03-16T05:58:41;95361.31;;;-2.91;68.37
75166;BME280;63747;48.042;10.088;2023-03-16T06:01:43;95351.44;;;-2.85;68.12
75166;BME280;63747;48.042;10.088;2023-03-16T06:04:44;95351.63;;;-2.88;68.23
75166;BME280;63747;48.042;10.088;2023-03-16T06:07:45;95351.75;;;-2.75;68.24
75166;BME280;63747;48.042;10.088;2023-03-16T06:10:46;95353.03;;;-2.82;68.34
75166;BME280;63747;48.042;10.088;2023-03-16T06:13:47;95341.38;;;-2.75;68.43
75166;BME280;63747;48.042;10.088;2023-03-16T06:16:48;95351.59;;;-2.58;68.47
75166;BME280;63747;48.042;10.088;2023-03-16T06:19:49;95353.66;;;-2.48;68.16
75166;BME280;63747;48.042;10.088;2023-03-16T06:22:50;95355.69;;;-2.39;68.46
75166;BME280;63747;48.042;10.088;2023-03-16T06:25:50;95357.00;;;-2.18;68.21
75166;BME280;63747;48.042;10.088;2023-03-16T06:28:54;95351.28;;;-2.09;68.34
75166;BME280;63747;48.042;10.088;2023-03-16T06:31:54;95351.06;;;-1.91;68.20
75166;BME280;63747;48.042;10.088;2023-03-16T06:34:56;95345.53;;;-1.58;68.09
75166;BME280;63747;48.042;10.088;2023-03-16T06:37:58;95337.97;;;-1.34;67.54
75166;BME280;63747;48.042;10.088;2023-03-16T06:40:59;95345.31;;;-1.14;67.63
75166;BME280;63747;48.042;10.088;2023-03-16T06:44:01;95349.84;;;-0.91;67.54
75166;BME280;63747;48.042;10.088;2023-03-16T06:47:02;95341.66;;;-0.84;67.35
75166;BME280;63747;48.042;10.088;2023-03-16T06:50:03;95336.47;;;-0.72;67.52
75166;BME280;63747;48.042;10.088;2023-03-16T06:53:04;95333.47;;;-0.66;67.39
75166;BME280;63747;48.042;10.088;2023-03-16T06:56:05;95334.59;;;-0.70;67.49
75166;BME280;63747;48.042;10.088;2023-03-16T06:59:06;95336.50;;;-0.46;67.56
75166;BME280;63747;48.042;10.088;2023-03-16T07:02:10;95337.56;;;-0.23;67.03
75166;BME280;63747;48.042;10.088;2023-03-16T07:05:12;95344.19;;;0.06;66.75
75166;BME280;63747;48.042;10.088;2023-03-16T07:08:13;95343.97;;;0.22;66.29
75166;BME280;63747;48.042;10.088;2023-03-16T07:11:14;95337.94;;;0.21;66.43
75166;BME280;63747;48.042;10.088;2023-03-16T07:14:14;95341.94;;;0.38;66.50
75166;BME280;63747;48.042;10.088;2023-03-16T07:17:16;95324.50;;;0.51;66.10
75166;BME280;63747;48.042;10.088;2023-03-16T07:20:17;95335.09;;;0.61;65.88
75166;BME280;63747;48.042;10.088;2023-03-16T07:23:19;95338.16;;;0.79;65.71
75166;BME280;63747;48.042;10.088;2023-03-16T07:26:19;95328.34;;;1.06;65.26
75166;BME280;63747;48.042;10.088;2023-03-16T07:29:20;95336.34;;;1.16;65.06
75166;BME280;63747;48.042;10.088;2023-03-16T07:32:21;95329.97;;;1.31;64.88
75166;BME280;63747;48.042;10.088;2023-03-16T07:35:22;95327.16;;;1.46;64.50
75166;BME280;63747;48.042;10.088;2023-03-16T07:38:23;95328.59;;;1.50;64.67
75166;BME280;63747;48.042;10.088;2023-03-16T07:41:24;95333.16;;;1.81;64.25
75166;BME280;63747;48.042;10.088;2023-03-16T07:44:24;95331.50;;;2.03;63.94
75166;BME280;63747;48.042;10.088;2023-03-16T07:47:25;95335.09;;;2.24;63.55
75166;BME280;63747;48.042;10.088;2023-03-16T07:50:26;95339.13;;;2.39;62.87
75166;BME280;63747;48.042;10.088;2023-03-16T07:53:26;95338.53;;;2.47;62.83
75166;BME280;63747;48.042;10.088;2023-03-16T07:56:27;95343.59;;;2.71;62.63
75166;BME280;63747;48.042;10.088;2023-03-16T07:59:28;95340.25;;;2.80;61.91
75166;BME280;63747;48.042;10.088;2023-03-16T08:02:29;95346.19;;;2.82;62.02
75166;BME280;63747;48.042;10.088;2023-03-16T08:05:30;95349.03;;;2.90;62.14
75166;BME280;63747;48.042;10.088;2023-03-16T08:08:33;95348.94;;;2.92;62.17
75166;BME280;63747;48.042;10.088;2023-03-16T08:11:34;95350.19;;;2.97;61.55
75166;BME280;63747;48.042;10.088;2023-03-16T08:14:35;95352.13;;;2.95;61.94
75166;BME280;63747;48.042;10.088;2023-03-16T08:17:36;95350.19;;;2.97;61.33
75166;BME280;63747;48.042;10.088;2023-03-16T08:20:36;95349.81;;;3.13;61.42
75166;BME280;63747;48.042;10.088;2023-03-16T08:23:37;95344.06;;;3.19;60.61
75166;BME280;63747;48.042;10.088;2023-03-16T08:26:38;95352.13;;;3.28;61.12
75166;BME280;63747;48.042;10.088;2023-03-16T08:29:39;95350.06;;;3.42;60.66
75166;BME280;63747;48.042;10.088;2023-03-16T08:32:40;95349.13;;;3.64;60.32
75166;BME280;63747;48.042;10.088;2023-03-16T08:35:41;95347.13;;;3.98;59.97
75166;BME280;63747;48.042;10.088;2023-03-16T08:38:43;95348.41;;;4.04;59.67
75166;BME280;63747;48.042;10.088;2023-03-16T08:41:46;95346.56;;;4.25;59.44
75166;BME280;63747;48.042;10.088;2023-03-16T08:44:47;95342.25;;;4.15;58.99
75166;BME280;63747;48.042;10.088;2023-03-16T08:47:47;95347.53;;;4.24;59.29
75166;BME280;63747;48.042;10.088;2023-03-16T08:50:49;95352.78;;;4.24;58.79
75166;BME280;63747;48.042;10.088;2023-03-16T08:53:50;95354.22;;;4.38;58.70
75166;BME280;63747;48.042;10.088;2023-03-16T08:56:51;95345.47;;;4.58;58.27
75166;BME280;63747;48.042;10.088;2023-03-16T08:59:53;95340.28;;;4.78;58.44
75166;BME280;63747;48.042;10.088;2023-03-16T09:02:54;95348.63;;;5.02;57.10
75166;BME280;63747;48.042;10.088;2023-03-16T09:06:00;95335.78;;;5.19;57.24
75166;BME280;63747;48.042;10.088;2023-03-16T09:09:01;95338.69;;;5.15;56.80
75166;BME280;63747;48.042;10.088;2023-03-16T09:12:02;95338.41;;;5.09;56.67
75166;BME280;63747;48.042;10.088;2023-03-16T09:15:04;95333.53;;;5.14;58.12
75166;BME280;63747;48.042;10.088;2023-03-16T09:18:05;95334.81;;;5.39;56.81
75166;BME280;63747;48.042;10.088;2023-03-16T09:21:07;95326.66;;;5.52;57.24
75166;BME280;63747;48.042;10.088;2023-03-16T09:24:09;95327.44;;;5.81;56.30
75166;BME280;63747;48.042;10.088;2023-03-16T09:27:10;95319.69;;;5.89;56.06
75166;BME280;63747;48.042;10.088;2023-03-16T09:30:11;95324.53;;;5.94;56.27
75166;BME280;63747;48.042;10.088;2023-03-16T09:33:12;95327.53;;;6.09;56.21
75166;BME280;63747;48.042;10.088;2023-03-16T09:36:13;95324.97;;;6.36;56.30
75166;BME280;63747;48.042;10.088;2023-03-16T09:39:15;95324.34;;;6.52;55.15
75166;BME280;63747;48.042;10.088;2023-03-16T09:42:19;95326.50;;;6.66;54.71
75166;BME280;63747;48.042;10.088;2023-03-16T09:45:52;95316.56;;;6.60;53.60
75166;BME280;63747;48.042;10.088;2023-03-16T09:48:50;95304.72;;;6.64;52.69
75166;BME280;63747;48.042;10.088;2023-03-16T09:52:06;95321.25;;;6.66;52.91
75166;BME280;63747;48.042;10.088;2023-03-16T09:55:15;95310.00;;;7.10;51.52
75166;BME280;63747;48.042;10.088;2023-03-16T09:58:21;95298.06;;;7.33;52.27
75166;BME280;63747;48.042;10.088;2023-03-16T10:01:38;95290.81;;;7.35;52.37
75166;BME280;63747;48.042;10.088;2023-03-16T10:04:47;95284.13;;;7.41;50.51
75166;BME280;63747;48.042;10.088;2023-03-16T10:11:22;95273.94;;;8.50;49.62
75166;BME280;63747;48.042;10.088;2023-03-16T10:17:49;95260.31;;;9.37;47.72
75166;BME280;63747;48.042;10.088;2023-03-16T10:20:52;95260.53;;;8.93;45.26
75166;BME280;63747;48.042;10.088;2023-03-16T10:23:56;95252.81;;;9.16;45.61
75166;BME280;63747;48.042;10.088;2023-03-16T10:27:02;95235.13;;;9.09;45.16
75166;BME280;63747;48.042;10.088;2023-03-16T10:33:30;95229.94;;;10.13;46.38
75166;BME280;63747;48.042;10.088;2023-03-16T10:36:34;95226.31;;;10.53;44.80
75166;BME280;63747;48.042;10.088;2023-03-16T10:39:36;95224.75;;;10.75;44.10
75166;BME280;63747;48.042;10.088;2023-03-16T10:42:41;95224.41;;;10.78;43.05
75166;BME280;63747;48.042;10.088;2023-03-16T10:45:43;95220.34;;;10.91;44.28
75166;BME280;63747;48.042;10.088;2023-03-16T10:48:55;95230.09;;;10.98;42.18
75166;BME280;63747;48.042;10.088;2023-03-16T10:51:59;95221.97;;;11.23;41.66
75166;BME280;63747;48.042;10.088;2023-03-16T10:55:22;95215.63;;;11.32;41.56
75166;BME280;63747;48.042;10.088;2023-03-16T10:58:29;95226.25;;;11.24;41.99
75166;BME280;63747;48.042;10.088;2023-03-16T11:01:30;95222.53;;;11.56;41.83
75166;BME280;63747;48.042;10.088;2023-03-16T11:04:31;95218.88;;;11.57;41.59
75166;BME280;63747;48.042;10.088;2023-03-16T11:07:34;95209.75;;;11.59;41.03
75166;BME280;63747;48.042;10.088;2023-03-16T11:10:53;95206.94;;;11.76;41.19
75166;BME280;63747;48.042;10.088;2023-03-16T11:13:59;95202.97;;;12.09;40.72
75166;BME280;63747;48.042;10.088;2023-03-16T11:17:13;95213.78;;;12.22;40.58
75166;BME280;63747;48.042;10.088;2023-03-16T11:20:17;95200.97;;;12.41;39.95
75166;BME280;63747;48.042;10.088;2023-03-16T11:23:32;95208.00;;;12.48;39.41
75166;BME280;63747;48.042;10.088;2023-03-16T11:26:35;95210.41;;;12.14;39.13
75166;BME280;63747;48.042;10.088;2023-03-16T11:32:58;95212.31;;;12.05;38.82
75166;BME280;63747;48.042;10.088;2023-03-16T11:36:20;95209.81;;;12.33;39.80
75166;BME280;63747;48.042;10.088;2023-03-16T11:39:31;95199.78;;;12.79;38.98
75166;BME280;63747;48.042;10.088;2023-03-16T11:42:37;95208.72;;;13.08;38.89
75166;BME280;63747;48.042;10.088;2023-03-16T11:45:52;95215.81;;;12.86;37.08
75166;BME280;63747;48.042;10.088;2023-03-16T11:52:48;95205.75;;;13.18;38.43
75166;BME280;63747;48.042;10.088;2023-03-16T12:06:08;95191.72;;;12.88;38.29
75166;BME280;63747;48.042;10.088;2023-03-16T12:12:57;95174.31;;;13.49;36.58
75166;BME280;63747;48.042;10.088;2023-03-16T12:16:22;95168.34;;;13.47;35.60
75166;BME280;63747;48.042;10.088;2023-03-16T12:19:44;95180.88;;;13.53;36.79
75166;BME280;63747;48.042;10.088;2023-03-16T12:23:07;95169.75;;;13.99;36.40
75166;BME280;63747;48.042;10.088;2023-03-16T12:26:11;95164.63;;;13.70;34.40
75166;BME280;63747;48.042;10.088;2023-03-16T12:29:26;95163.72;;;13.56;35.58
75166;BME280;63747;48.042;10.088;2023-03-16T12:32:42;95162.34;;;13.95;35.90
75166;BME280;63747;48.042;10.088;2023-03-16T12:46:38;95157.75;;;14.45;35.50
75166;BME280;63747;48.042;10.088;2023-03-16T12:49:42;95155.69;;;14.47;36.12
75166;BME280;63747;48.042;10.088;2023-03-16T12:52:46;95147.38;;;14.83;35.83
75166;BME280;63747;48.042;10.088;2023-03-16T12:55:47;95143.09;;;14.82;34.68
75166;BME280;63747;48.042;10.088;2023-03-16T12:58:49;95141.84;;;14.78;34.98
75166;BME280;63747;48.042;10.088;2023-03-16T13:01:56;95139.00;;;14.92;33.77
75166;BME280;63747;48.042;10.088;2023-03-16T13:05:00;95134.41;;;14.60;32.91
75166;BME280;63747;48.042;10.088;2023-03-16T13:08:16;95137.03;;;14.12;32.27
75166;BME280;63747;48.042;10.088;2023-03-16T13:11:17;95138.72;;;14.61;33.44
75166;BME280;63747;48.042;10.088;2023-03-16T13:14:41;95134.31;;;15.01;34.07
75166;BME280;63747;48.042;10.088;2023-03-16T13:17:43;95126.91;;;15.10;34.58
75166;BME280;63747;48.042;10.088;2023-03-16T13:23:59;95123.19;;;14.97;34.39
75166;BME280;63747;48.042;10.088;2023-03-16T13:27:03;95113.19;;;15.13;33.82
75166;BME280;63747;48.042;10.088;2023-03-16T13:30:30;95120.41;;;15.32;34.09
75166;BME280;63747;48.042;10.088;2023-03-16T13:33:34;95109.06;;;15.17;34.26
75166;BME280;63747;48.042;10.088;2023-03-16T13:36:36;95112.75;;;15.16;35.22
75166;BME280;63747;48.042;10.088;2023-03-16T13:39:37;95113.13;;;14.80;36.45
75166;BME280;63747;48.042;10.088;2023-03-16T13:42:37;95112.69;;;14.76;34.69
75166;BME280;63747;48.042;10.088;2023-03-16T13:45:38;95107.97;;;14.72;34.37
75166;BME280;63747;48.042;10.088;2023-03-16T13:48:39;95107.59;;;14.94;34.96
75166;BME280;63747;48.042;10.088;2023-03-16T13:51:40;95103.69;;;14.97;33.94
75166;BME280;63747;48.042;10.088;2023-03-16T13:54:42;95096.91;;;14.81;34.43
75166;BME280;63747;48.042;10.088;2023-03-16T13:57:44;95094.03;;;14.96;34.80
75166;BME280;63747;48.042;10.088;2023-03-16T14:00:45;95103.38;;;15.27;34.66
75166;BME280;63747;48.042;10.088;2023-03-16T14:03:46;95103.75;;;15.23;33.28
75166;BME280;63747;48.042;10.088;2023-03-16T14:06:52;95102.50;;;15.06;34.89
75166;BME280;63747;48.042;10.088;2023-03-16T14:09:54;95105.31;;;14.78;34.14
75166;BME280;63747;48.042;10.088;2023-03-16T14:13:08;95098.91;;;14.59;34.30
75166;BME280;63747;48.042;10.088;2023-03-16T14:16:16;95090.00;;;14.32;37.58
75166;BME280;63747;48.042;10.088;2023-03-16T14:19:23;95092.84;;;14.31;35.75
75166;BME280;63747;48.042;10.088;2023-03-16T14:22:32;95087.97;;;14.41;34.86
75166;BME280;63747;48.042;10.088;2023-03-16T14:25:33;95090.56;;;14.28;35.70
75166;BME280;63747;48.042;10.088;2023-03-16T14:28:34;95088.81;;;14.07;35.46
75166;BME280;63747;48.042;10.088;2023-03-16T14:31:37;95087.91;;;14.28;35.65
75166;BME280;63747;48.042;10.088;2023-03-16T14:34:39;95090.25;;;14.09;34.62
75166;BME280;63747;48.042;10.088;2023-03-16T14:37:41;95099.16;;;13.88;35.27
75166;BME280;63747;48.042;10.088;2023-03-16T14:40:51;95088.91;;;13.85;35.98
75166;BME280;63747;48.042;10.088;2023-03-16T14:44:02;95086.09;;;13.94;35.38
75166;BME280;63747;48.042;10.088;2023-03-16T14:47:03;95091.84;;;13.97;35.19
75166;BME280;63747;48.042;10.088;2023-03-16T14:50:11;95091.13;;;13.82;35.51
75166;BME280;63747;48.042;10.088;2023-03-16T14:53:12;95094.94;;;13.66;36.06
75166;BME280;63747;48.042;10.088;2023-03-16T14:56:13;95087.09;;;13.58;36.16
75166;BME280;63747;48.042;10.088;2023-03-16T14:59:14;95092.44;;;13.58;35.69
75166;BME280;63747;48.042;10.088;2023-03-16T15:02:18;95094.34;;;13.36;36.04
75166;BME280;63747;48.042;10.088;2023-03-16T15:05:23;95091.84;;;13.34;35.62
75166;BME280;63747;48.042;10.088;2023-03-16T15:08:29;95092.06;;;13.12;35.34
75166;BME280;63747;48.042;10.088;2023-03-16T15:11:31;95084.34;;;12.95;35.07
75166;BME280;63747;48.042;10.088;2023-03-16T15:14:31;95086.94;;;12.67;36.11
75166;BME280;63747;48.042;10.088;2023-03-16T15:17:51;95079.19;;;12.94;36.55
75166;BME280;63747;48.042;10.088;2023-03-16T15:20:52;95074.06;;;12.92;36.18
75166;BME280;63747;48.042;10.088;2023-03-16T15:23:54;95069.56;;;12.93;36.32
75166;BME280;63747;48.042;10.088;2023-03-16T15:26:58;95061.28;;;12.81;36.05
75166;BME280;63747;48.042;10.088;2023-03-16T15:29:59;95059.56;;;12.73;36.70
75166;BME280;63747;48.042;10.088;2023-03-16T15:32:59;95058.84;;;12.86;36.25
75166;BME280;63747;48.042;10.088;2023-03-16T15:36:09;95057.59;;;12.82;37.26
75166;BME280;63747;48.042;10.088;2023-03-16T15:39:20;95059.94;;;12.70;36.67
75166;BME280;63747;48.042;10.088;2023-03-16T15:42:22;95061.66;;;12.57;37.40
75166;BME280;63747;48.042;10.088;2023-03-16T15:45:24;95068.47;;;12.44;37.66
75166;BME280;63747;48.042;10.088;2023-03-16T15:48:26;95054.22;;;12.31;39.14
75166;BME280;63747;48.042;10.088;2023-03-16T15:51:28;95058.00;;;12.21;38.60
75166;BME280;63747;48.042;10.088;2023-03-16T15:54:31;95066.38;;;12.04;38.97
75166;BME280;63747;48.042;10.088;2023-03-16T15:57:33;95070.97;;;11.80;39.12
75166;BME280;63747;48.042;10.088;2023-03-16T16:00:36;95072.41;;;11.68;40.25
75166;BME280;63747;48.042;10.088;2023-03-16T16:03:38;95078.66;;;11.46;40.85
75166;BME280;63747;48.042;10.088;2023-03-16T16:06:39;95077.97;;;11.29;41.25
75166;BME280;63747;48.042;10.088;2023-03-16T16:09:40;95076.03;;;11.23;41.37
75166;BME280;63747;48.042;10.088;2023-03-16T16:12:42;95076.56;;;11.18;41.40
75166;BME280;63747;48.042;10.088;2023-03-16T16:15:50;95067.41;;;11.06;41.95
75166;BME280;63747;48.042;10.088;2023-03-16T16:18:50;95058.25;;;10.94;41.95
75166;BME280;63747;48.042;10.088;2023-03-16T16:21:51;95064.50;;;10.78;42.44
75166;BME280;63747;48.042;10.088;2023-03-16T16:24:52;95057.00;;;10.58;42.80
75166;BME280;63747;48.042;10.088;2023-03-16T16:27:53;95065.34;;;10.47;42.69
75166;BME280;63747;48.042;10.088;2023-03-16T16:30:54;95062.81;;;10.31;43.26
75166;BME280;63747;48.042;10.088;2023-03-16T16:33:56;95064.69;;;10.22;43.11
75166;BME280;63747;48.042;10.088;2023-03-16T16:36:58;95061.31;;;10.05;43.50
75166;BME280;63747;48.042;10.088;2023-03-16T16:39:58;95061.69;;;9.94;43.89
75166;BME280;63747;48.042;10.088;2023-03-16T16:43:01;95066.69;;;9.81;44.07
75166;BME280;63747;48.042;10.088;2023-03-16T16:46:16;95075.38;;;9.67;43.99
75166;BME280;63747;48.042;10.088;2023-03-16T16:49:21;95087.31;;;9.55;44.19
75166;BME280;63747;48.042;10.088;2023-03-16T16:52:22;95081.41;;;9.44;44.44
75166;BME280;63747;48.042;10.088;2023-03-16T16:55:23;95078.75;;;9.28;44.73